createdAt,value
2022-08-11T00:01:27.366Z,13.80
2022-08-11T00:04:01.153Z,13.82
2022-08-11T00:06:39.378Z,13.81
2022-08-11T00:09:16.810Z,13.79
2022-08-11T00:11:46.200Z,13.75
2022-08-11T00:14:20.238Z,13.72
2022-08-11T00:17:05.882Z,13.64
2022-08-11T00:20:12.751Z,13.65
2022-08-11T00:22:25.077Z,13.65
2022-08-11T00:24:58.546Z,13.64
2022-08-11T00:27:34.340Z,13.72
2022-08-11T00:30:02.667Z,13.67
2022-08-11T00:32:30.764Z,13.50
2022-08-11T00:35:53.663Z,13.56
2022-08-11T00:37:50.749Z,13.50
2022-08-11T00:40:42.142Z,13.60
2022-08-11T00:43:20.042Z,13.61
2022-08-11T00:46:11.457Z,13.56
2022-08-11T00:48:50.383Z,13.47
2022-08-11T00:52:04.013Z,13.56
2022-08-11T00:54:39.073Z,13.60
2022-08-11T00:57:38.243Z,13.70
2022-08-11T01:00:11.315Z,13.80
2022-08-11T01:02:57.112Z,13.84
2022-08-11T01:05:58.415Z,13.82
2022-08-11T01:09:22.328Z,13.82
2022-08-11T01:12:39.448Z,13.81
2022-08-11T01:15:22.017Z,13.70
2022-08-11T01:18:28.410Z,13.78
2022-08-11T01:21:23.953Z,13.75
2022-08-11T01:24:38.470Z,13.79
2022-08-11T01:27:26.751Z,13.77
2022-08-11T01:30:16.058Z,13.82
2022-08-11T01:33:28.538Z,13.77
2022-08-11T01:36:16.425Z,13.69
2022-08-11T01:39:05.221Z,13.77
2022-08-11T01:42:22.246Z,13.77
2022-08-11T01:44:52.544Z,13.71
2022-08-11T01:47:53.003Z,13.65
2022-08-11T01:51:01.799Z,13.60
2022-08-11T01:53:44.487Z,13.57
2022-08-11T01:56:34.474Z,13.50
2022-08-11T01:59:28.197Z,13.50
2022-08-11T02:02:43.267Z,13.51
2022-08-11T02:05:31.841Z,13.46
2022-08-11T02:08:18.303Z,13.42
2022-08-11T02:11:35.487Z,13.38
2022-08-11T02:14:25.058Z,13.38
2022-08-11T02:17:18.331Z,13.35
2022-08-11T02:20:28.973Z,13.36
2022-08-11T02:24:05.667Z,13.26
2022-08-11T02:26:20.472Z,13.32
2022-08-11T02:28:56.415Z,13.32
2022-08-11T02:32:24.025Z,13.47
2022-08-11T02:35:01.613Z,13.59
2022-08-11T02:37:34.533Z,13.60
2022-08-11T02:40:16.976Z,13.52
2022-08-11T02:42:47.568Z,13.45
2022-08-11T02:45:31.423Z,13.43
2022-08-11T02:48:27.439Z,13.41
2022-08-11T02:51:21.865Z,13.38
2022-08-11T02:54:21.305Z,13.43
2022-08-11T02:56:57.334Z,13.44
2022-08-11T02:59:56.871Z,13.60
2022-08-11T03:02:28.019Z,13.56
2022-08-11T03:05:17.115Z,13.54
2022-08-11T03:08:10.687Z,13.58
2022-08-11T03:11:41.351Z,13.61
2022-08-11T03:14:52.359Z,13.70
2022-08-11T03:17:28.441Z,13.69
2022-08-11T03:20:21.644Z,13.72
2022-08-11T03:23:06.378Z,13.71
2022-08-11T03:26:06.924Z,13.75
2022-08-11T03:28:51.650Z,13.82
2022-08-11T03:31:34.591Z,13.99
2022-08-11T03:34:09.293Z,14.04
2022-08-11T03:37:14.817Z,14.08
2022-08-11T03:39:38.047Z,14.17
2022-08-11T03:42:56.558Z,14.25
2022-08-11T03:45:49.427Z,14.19
2022-08-11T03:48:21.754Z,14.33
2022-08-11T03:51:01.132Z,14.35
2022-08-11T03:53:43.343Z,14.29
2022-08-11T03:56:42.375Z,14.37
2022-08-11T03:59:34.987Z,14.57
2022-08-11T04:02:21.078Z,14.69
2022-08-11T04:05:14.799Z,14.76
2022-08-11T04:07:57.209Z,14.89
2022-08-11T04:11:02.303Z,14.94
2022-08-11T04:14:19.419Z,14.97
2022-08-11T04:17:13.794Z,15.21
2022-08-11T04:19:59.231Z,15.32
2022-08-11T04:23:04.585Z,15.32
2022-08-11T04:25:34.563Z,15.37
2022-08-11T04:28:49.710Z,15.45
2022-08-11T04:31:51.800Z,15.60
2022-08-11T04:34:55.027Z,16.08
2022-08-11T04:38:08.729Z,16.08
2022-08-11T04:40:36.227Z,16.16
2022-08-11T04:43:24.062Z,16.29
2022-08-11T04:46:18.773Z,16.41
2022-08-11T04:49:34.319Z,16.48
2022-08-11T04:52:41.965Z,16.83
2022-08-11T04:55:58.933Z,16.93
2022-08-11T04:59:29.716Z,17.59
2022-08-11T05:02:17.233Z,17.77
2022-08-11T05:05:28.316Z,17.34
2022-08-11T05:08:29.673Z,17.16
2022-08-11T05:11:22.030Z,17.57
2022-08-11T05:14:32.054Z,17.93
2022-08-11T05:17:27.552Z,18.35
2022-08-11T05:20:13.680Z,19.34
2022-08-11T05:23:09.294Z,21.62
2022-08-11T05:26:44.800Z,25.49
2022-08-11T05:29:19.892Z,29.68
2022-08-11T05:32:18.844Z,31.25
2022-08-11T05:34:56.488Z,32.60
2022-08-11T05:37:29.747Z,32.70
2022-08-11T05:40:31.018Z,34.15
2022-08-11T05:43:19.823Z,33.65
2022-08-11T05:46:23.679Z,31.65
2022-08-11T05:49:11.354Z,33.43
2022-08-11T05:52:05.465Z,35.28
2022-08-11T05:55:06.007Z,35.29
2022-08-11T05:57:49.942Z,32.66
2022-08-11T06:00:20.433Z,35.91
2022-08-11T06:02:57.738Z,34.02
2022-08-11T06:05:38.471Z,30.84
2022-08-11T06:08:13.874Z,27.93
2022-08-11T06:10:45.057Z,28.34
2022-08-11T06:13:16.740Z,31.68
2022-08-11T06:15:53.046Z,35.06
2022-08-11T06:18:21.024Z,36.09
2022-08-11T06:20:54.232Z,38.21
2022-08-11T06:23:24.161Z,34.75
2022-08-11T06:25:56.188Z,35.56
2022-08-11T06:28:37.263Z,36.90
2022-08-11T06:31:17.574Z,37.05
2022-08-11T06:33:51.099Z,38.26
2022-08-11T06:36:37.076Z,34.85
2022-08-11T06:39:32.991Z,33.68
2022-08-11T06:42:10.960Z,35.38
2022-08-11T06:44:48.352Z,37.42
2022-08-11T06:47:17.232Z,39.33
2022-08-11T06:50:04.705Z,40.66
2022-08-11T06:52:39.167Z,40.19
2022-08-11T06:55:55.271Z,37.97
2022-08-11T06:58:17.986Z,39.96
2022-08-11T07:00:49.043Z,36.54
2022-08-11T07:03:19.722Z,36.69
2022-08-11T07:06:06.218Z,36.99
2022-08-11T07:09:21.487Z,36.86
2022-08-11T07:12:41.700Z,36.80
2022-08-11T07:16:11.674Z,38.13
2022-08-11T07:18:50.596Z,40.34
2022-08-11T07:22:01.413Z,41.16
2022-08-11T07:24:59.704Z,37.20
2022-08-11T07:27:56.276Z,36.82
2022-08-11T07:30:26.295Z,39.48
2022-08-11T07:32:57.066Z,39.31
2022-08-11T07:35:49.888Z,40.21
2022-08-11T07:38:25.502Z,37.91
2022-08-11T07:40:53.168Z,37.14
2022-08-11T07:43:20.581Z,37.92
2022-08-11T07:46:06.665Z,32.92
2022-08-11T07:48:53.735Z,35.04
2022-08-11T07:51:40.160Z,34.52
2022-08-11T07:54:17.121Z,32.31
2022-08-11T07:57:07.177Z,28.98
2022-08-11T08:00:00.906Z,31.52
2022-08-11T08:03:02.283Z,34.71
2022-08-11T08:05:49.025Z,33.52
2022-08-11T08:08:35.554Z,30.44
2022-08-11T08:11:27.068Z,29.81
2022-08-11T08:14:14.566Z,30.55
2022-08-11T08:17:01.627Z,29.14
2022-08-11T08:19:29.852Z,26.01
2022-08-11T08:22:11.023Z,25.85
2022-08-11T08:24:46.542Z,27.75
2022-08-11T08:27:14.976Z,30.17
2022-08-11T08:30:03.810Z,32.67
2022-08-11T08:32:32.482Z,34.06
2022-08-11T08:35:00.941Z,35.08
2022-08-11T08:37:45.450Z,34.15
2022-08-11T08:40:15.076Z,31.19
2022-08-11T08:43:07.357Z,33.03
2022-08-11T08:45:37.880Z,32.10
2022-08-11T08:48:11.820Z,32.82
2022-08-11T08:51:22.658Z,33.47
2022-08-11T08:53:53.954Z,35.45
2022-08-11T08:56:28.489Z,35.61
2022-08-11T08:58:59.745Z,36.02
2022-08-11T09:01:31.265Z,37.31
2022-08-11T09:04:06.814Z,36.84
2022-08-11T09:06:43.067Z,36.67
2022-08-11T09:09:14.750Z,37.06
2022-08-11T09:11:56.126Z,34.55
2022-08-11T09:14:49.761Z,36.74
2022-08-11T09:17:24.621Z,35.88
2022-08-11T09:20:00.387Z,32.99
2022-08-11T09:23:29.609Z,33.35
2022-08-11T09:26:00.610Z,33.73
2022-08-11T09:28:31.708Z,32.61
2022-08-11T09:31:01.845Z,32.61
2022-08-11T09:33:31.792Z,30.45
2022-08-11T09:36:21.110Z,32.14
2022-08-11T09:39:07.573Z,32.14
2022-08-11T09:42:00.730Z,30.53
2022-08-11T09:44:43.544Z,30.03
2022-08-11T09:47:15.559Z,31.46
2022-08-11T09:49:45.465Z,31.18
2022-08-11T09:52:14.446Z,30.96
2022-08-11T09:54:43.509Z,31.16
2022-08-11T09:57:38.427Z,30.97
2022-08-11T10:00:12.552Z,30.59
2022-08-11T10:02:47.456Z,30.88
2022-08-11T10:05:38.161Z,32.02
2022-08-11T10:08:07.743Z,31.94
2022-08-11T10:10:38.041Z,30.60
2022-08-11T10:14:32.080Z,29.50
2022-08-11T10:16:15.826Z,30.92
2022-08-11T10:18:52.997Z,30.33
2022-08-11T10:21:24.285Z,30.73
2022-08-11T10:24:12.034Z,30.86
2022-08-11T10:26:54.630Z,29.90
2022-08-11T10:29:52.177Z,29.36
2022-08-11T10:32:51.048Z,29.20
2022-08-11T10:35:29.677Z,28.24
2022-08-11T10:38:08.144Z,29.09
2022-08-11T10:40:41.557Z,28.71
2022-08-11T10:43:14.232Z,29.19
2022-08-11T10:46:04.052Z,28.18
2022-08-11T10:48:38.023Z,27.20
2022-08-11T10:51:23.824Z,26.99
2022-08-11T10:54:22.850Z,25.98
2022-08-11T10:57:08.799Z,25.89
2022-08-11T10:59:36.321Z,27.01
2022-08-11T11:02:03.974Z,26.98
2022-08-11T11:05:00.572Z,26.99
2022-08-11T11:07:44.190Z,27.29
2022-08-11T11:10:11.813Z,26.84
2022-08-11T11:13:05.118Z,27.24
2022-08-11T11:15:54.703Z,25.90
2022-08-11T11:18:25.611Z,25.14
2022-08-11T11:21:00.381Z,23.81
2022-08-11T11:23:47.532Z,23.20
2022-08-11T11:26:56.273Z,23.08
2022-08-11T11:29:42.585Z,22.99
2022-08-11T11:32:28.266Z,22.70
2022-08-11T11:35:20.935Z,22.80
2022-08-11T11:38:00.013Z,22.61
2022-08-11T11:40:32.975Z,22.61
2022-08-11T11:43:01.218Z,22.26
2022-08-11T11:45:28.884Z,22.43
2022-08-11T11:47:59.507Z,22.18
2022-08-11T11:50:34.561Z,22.01
2022-08-11T11:53:06.107Z,22.18
2022-08-11T11:55:33.631Z,22.17
2022-08-11T11:58:41.570Z,22.07
2022-08-11T12:01:20.305Z,22.11
2022-08-11T12:03:50.672Z,22.15
2022-08-11T12:06:22.062Z,22.23
2022-08-11T12:08:51.977Z,22.17
2022-08-11T12:11:40.233Z,22.13
2022-08-11T12:14:11.662Z,21.83
2022-08-11T12:16:42.427Z,21.43
2022-08-11T12:19:23.003Z,21.66
2022-08-11T12:22:10.929Z,21.51
2022-08-11T12:24:58.000Z,21.87
2022-08-11T12:27:27.702Z,21.87
2022-08-11T12:30:00.235Z,21.70
2022-08-11T12:32:30.886Z,21.82
2022-08-11T12:34:58.932Z,21.72
2022-08-11T12:37:35.422Z,21.78
2022-08-11T12:40:43.445Z,21.78
2022-08-11T12:43:39.964Z,21.90
2022-08-11T12:49:07.081Z,21.80
2022-08-11T12:52:14.418Z,21.78
2022-08-11T12:54:56.521Z,21.78
2022-08-11T12:57:48.366Z,21.93
2022-08-11T13:00:36.072Z,21.86
2022-08-11T13:03:24.336Z,21.87
2022-08-11T13:05:55.679Z,21.84
2022-08-11T13:08:25.578Z,21.80
2022-08-11T13:11:13.400Z,21.89
2022-08-11T13:13:54.541Z,21.60
2022-08-11T13:16:29.220Z,21.66
2022-08-11T13:19:01.532Z,21.71
2022-08-11T13:21:29.482Z,21.77
2022-08-11T13:24:00.929Z,21.73
2022-08-11T13:26:47.595Z,21.73
2022-08-11T13:29:26.649Z,21.67
2022-08-11T13:31:57.045Z,21.65
2022-08-11T13:34:27.039Z,21.46
2022-08-11T13:37:01.076Z,21.62
2022-08-11T13:39:31.203Z,21.75
2022-08-11T13:42:00.641Z,21.63
2022-08-11T13:44:31.513Z,21.45
2022-08-11T13:47:04.113Z,21.38
2022-08-11T13:49:35.685Z,21.59
2022-08-11T13:52:04.755Z,21.68
2022-08-11T13:54:35.384Z,21.51
2022-08-11T13:57:09.076Z,21.55
2022-08-11T13:59:51.894Z,21.53
2022-08-11T14:02:30.724Z,21.51
2022-08-11T14:05:04.260Z,21.43
2022-08-11T14:07:48.075Z,21.61
2022-08-11T14:10:17.669Z,21.40
2022-08-11T14:13:12.594Z,21.57
2022-08-11T14:15:45.530Z,21.41
2022-08-11T14:18:30.391Z,21.54
2022-08-11T14:21:19.844Z,21.39
2022-08-11T14:23:51.066Z,21.45
2022-08-11T14:26:29.628Z,21.66
2022-08-11T14:29:05.906Z,21.46
2022-08-11T14:31:35.861Z,21.51
2022-08-11T14:34:05.564Z,21.45
2022-08-11T14:36:38.054Z,21.30
2022-08-11T14:39:13.478Z,21.42
2022-08-11T14:42:11.941Z,21.50
2022-08-11T14:45:22.616Z,21.61
2022-08-11T14:47:53.459Z,21.60
2022-08-11T14:50:26.787Z,21.45
2022-08-11T14:53:00.546Z,21.51
2022-08-11T14:55:50.507Z,21.19
2022-08-11T14:58:21.444Z,21.28
2022-08-11T15:01:00.153Z,21.30
2022-08-11T15:03:30.846Z,21.30
2022-08-11T15:06:02.327Z,21.25
2022-08-11T15:08:51.448Z,21.11
2022-08-11T15:11:40.178Z,21.02
2022-08-11T15:14:09.898Z,21.03
2022-08-11T15:16:59.533Z,21.02
2022-08-11T15:19:37.506Z,21.11
2022-08-11T15:22:29.555Z,21.16
2022-08-11T15:24:59.972Z,21.23
2022-08-11T15:27:49.719Z,20.98
2022-08-11T15:30:35.732Z,21.03
2022-08-11T15:33:25.535Z,21.03
2022-08-11T15:36:13.010Z,21.02
2022-08-11T15:38:46.275Z,21.04
2022-08-11T15:41:35.765Z,21.01
2022-08-11T15:44:51.353Z,20.87
2022-08-11T15:47:18.696Z,20.71
2022-08-11T15:50:11.027Z,20.83
2022-08-11T15:52:47.306Z,20.79
2022-08-11T15:55:16.422Z,20.86
2022-08-11T15:58:05.662Z,20.72
2022-08-11T16:01:02.005Z,20.47
2022-08-11T16:04:08.005Z,20.54
2022-08-11T16:06:49.539Z,20.62
2022-08-11T16:10:00.244Z,20.54
2022-08-11T16:12:37.269Z,20.32
2022-08-11T16:15:26.724Z,20.44
2022-08-11T16:17:59.368Z,20.43
2022-08-11T16:20:28.353Z,20.31
2022-08-11T16:23:04.930Z,20.31
2022-08-11T16:27:06.062Z,20.36
2022-08-11T16:28:26.779Z,20.36
2022-08-11T16:30:55.335Z,20.35
2022-08-11T16:33:49.916Z,20.52
2022-08-11T16:36:32.994Z,20.43
2022-08-11T16:39:01.801Z,20.34
2022-08-11T16:41:51.183Z,20.35
2022-08-11T16:44:38.465Z,20.22
2022-08-11T16:47:08.619Z,20.00
2022-08-11T16:49:39.670Z,20.08
2022-08-11T16:52:11.839Z,20.18
2022-08-11T16:54:40.784Z,20.24
2022-08-11T16:57:45.286Z,19.97
2022-08-11T17:00:15.507Z,20.05
2022-08-11T17:03:05.410Z,19.95
2022-08-11T17:05:55.233Z,19.90
2022-08-11T17:08:57.529Z,19.75
2022-08-11T17:11:49.819Z,19.88
2022-08-11T17:14:35.318Z,19.72
2022-08-11T17:17:13.052Z,19.67
2022-08-11T17:20:39.718Z,19.76
2022-08-11T17:22:56.569Z,19.59
2022-08-11T17:25:28.521Z,19.67
2022-08-11T17:27:56.921Z,19.87
2022-08-11T17:30:46.517Z,19.61
2022-08-11T17:33:34.299Z,19.54
2022-08-11T17:36:02.795Z,19.56
2022-08-11T17:38:32.162Z,19.54
2022-08-11T17:41:30.958Z,19.65
2022-08-11T17:44:18.482Z,19.66
2022-08-11T17:47:06.601Z,19.56
2022-08-11T17:49:37.831Z,19.72
2022-08-11T17:52:33.242Z,19.54
2022-08-11T17:55:50.947Z,19.54
2022-08-11T17:58:29.028Z,19.46
2022-08-11T18:01:01.976Z,19.41
2022-08-11T18:03:40.021Z,19.36
2022-08-11T18:06:12.301Z,19.16
2022-08-11T18:09:03.455Z,19.10
2022-08-11T18:12:06.081Z,19.02
2022-08-11T18:14:57.859Z,19.09
2022-08-11T18:17:43.847Z,19.00
2022-08-11T18:20:29.882Z,18.89
2022-08-11T18:23:18.375Z,18.72
2022-08-11T18:26:07.246Z,18.67
2022-08-11T18:29:04.199Z,18.64
2022-08-11T18:31:55.695Z,18.24
2022-08-11T18:34:51.686Z,18.29
2022-08-11T18:37:45.808Z,18.16
2022-08-11T18:40:42.909Z,18.12
2022-08-11T18:43:31.531Z,18.07
2022-08-11T18:46:24.952Z,18.14
2022-08-11T18:49:17.304Z,18.02
2022-08-11T18:52:07.499Z,18.05
2022-08-11T18:54:56.211Z,17.91
2022-08-11T18:57:53.755Z,17.77
2022-08-11T19:00:42.604Z,17.96
2022-08-11T19:03:38.204Z,18.03
2022-08-11T19:06:40.548Z,17.71
2022-08-11T19:09:35.749Z,17.80
2022-08-11T19:12:25.118Z,17.57
2022-08-11T19:15:12.373Z,17.80
2022-08-11T19:18:01.658Z,17.91
2022-08-11T19:20:51.441Z,17.75
2022-08-11T19:23:52.250Z,17.84
2022-08-11T19:26:39.232Z,17.75
2022-08-11T19:30:07.786Z,17.56
2022-08-11T19:32:35.827Z,17.55
2022-08-11T19:35:23.851Z,17.78
2022-08-11T19:38:11.664Z,17.58
2022-08-11T19:40:58.755Z,17.24
2022-08-11T19:43:46.848Z,17.31
2022-08-11T19:46:34.790Z,17.44
2022-08-11T19:49:22.521Z,17.49
2022-08-11T19:52:10.348Z,17.57
2022-08-11T19:54:58.014Z,17.45
2022-08-11T19:57:45.212Z,17.45
2022-08-11T20:00:35.495Z,17.48
2022-08-11T20:03:24.486Z,17.21
2022-08-11T20:06:11.526Z,16.95
2022-08-11T20:09:01.397Z,16.70
2022-08-11T20:11:53.727Z,16.63
2022-08-11T20:14:40.940Z,16.50
2022-08-11T20:17:28.608Z,16.45
2022-08-11T20:20:18.638Z,16.19
2022-08-11T20:23:07.727Z,16.27
2022-08-11T20:25:59.160Z,16.28
2022-08-11T20:28:55.855Z,16.17
2022-08-11T20:31:43.001Z,16.19
2022-08-11T20:34:30.170Z,16.38
2022-08-11T20:37:20.088Z,16.80
2022-08-11T20:40:08.459Z,16.64
2022-08-11T20:42:55.450Z,16.37
2022-08-11T20:45:52.075Z,16.55
2022-08-11T20:48:50.526Z,16.54
2022-08-11T20:51:38.969Z,16.70
2022-08-11T20:54:42.964Z,16.73
2022-08-11T20:58:00.239Z,16.24
2022-08-11T21:00:44.009Z,16.20
2022-08-11T21:03:36.167Z,16.07
2022-08-11T21:06:33.535Z,15.96
2022-08-11T21:09:57.985Z,15.92
2022-08-11T21:15:46.982Z,15.88
2022-08-11T21:18:35.348Z,15.96
2022-08-11T21:21:25.274Z,16.39
2022-08-11T21:24:15.644Z,16.42
2022-08-11T21:27:05.936Z,16.44
2022-08-11T21:29:53.718Z,16.79
2022-08-11T21:32:42.350Z,16.48
2022-08-11T21:35:29.592Z,16.30
2022-08-11T21:38:17.768Z,16.25
2022-08-11T21:41:06.644Z,16.07
2022-08-11T21:43:54.696Z,15.95
2022-08-11T21:46:42.761Z,15.91
2022-08-11T21:49:30.544Z,15.68
2022-08-11T21:52:16.675Z,15.68
2022-08-11T21:55:02.974Z,15.62
2022-08-11T21:57:50.510Z,15.62
2022-08-11T22:00:36.890Z,15.61
2022-08-11T22:03:23.863Z,15.56
2022-08-11T22:06:12.414Z,15.43
2022-08-11T22:08:58.584Z,15.38
2022-08-11T22:11:44.710Z,15.57
2022-08-11T22:14:30.615Z,15.54
2022-08-11T22:17:16.858Z,15.57
2022-08-11T22:20:03.524Z,15.42
2022-08-11T22:22:53.112Z,15.55
2022-08-11T22:25:52.212Z,15.63
2022-08-11T22:28:44.725Z,15.64
2022-08-11T22:31:30.873Z,15.38
2022-08-11T22:34:17.017Z,15.40
2022-08-11T22:37:04.782Z,15.49
2022-08-11T22:40:01.735Z,15.57
2022-08-11T22:42:50.765Z,15.32
2022-08-11T22:45:37.774Z,15.46
2022-08-11T22:48:24.320Z,15.39
2022-08-11T22:51:11.531Z,15.42
2022-08-11T22:53:59.339Z,15.37
2022-08-11T22:56:47.222Z,15.37
2022-08-11T22:59:34.902Z,15.40
2022-08-11T23:02:23.751Z,15.36
2022-08-11T23:05:10.749Z,15.35
2022-08-11T23:07:58.295Z,15.37
2022-08-11T23:10:45.382Z,15.15
2022-08-11T23:13:33.988Z,15.18
2022-08-11T23:16:20.428Z,15.29
2022-08-11T23:19:07.618Z,15.22
2022-08-11T23:21:54.127Z,15.05
2022-08-11T23:24:41.222Z,15.27
2022-08-11T23:27:27.721Z,15.07
2022-08-11T23:30:18.823Z,15.08
2022-08-11T23:33:09.859Z,15.25
2022-08-11T23:36:02.306Z,15.25
2022-08-11T23:38:51.723Z,15.24
2022-08-11T23:41:38.850Z,15.17
2022-08-11T23:44:26.611Z,14.99
2022-08-11T23:47:15.273Z,15.19
2022-08-11T23:50:02.450Z,15.10
2022-08-11T23:52:49.181Z,15.18
2022-08-11T23:55:38.986Z,15.18
2022-08-11T23:58:25.811Z,15.17
